sensor_id;sensor_type;location;lat;lon;timestamp;pressure;altitude;pressure_sealevel;temperature;humidity
48790;BME280;41718;51.980;5.734;2023-01-26T00:00:33;102347.31;;;-2.10;100.00
48790;BME280;41718;51.980;5.734;2023-01-26T00:05:37;102333.63;;;-2.13;100.00
48790;BME280;41718;51.980;5.734;2023-01-26T00:10:40;102325.03;;;-2.04;100.00
48790;BME280;41718;51.980;5.734;2023-01-26T00:15:50;102311.47;;;-2.05;100.00
48790;BME280;41718;51.980;5.734;2023-01-26T00:20:59;102310.81;;;-2.13;100.00
48790;BME280;41718;51.980;5.734;2023-01-26T00:26:02;102303.22;;;-2.13;100.00
48790;BME280;41718;51.980;5.734;2023-01-26T00:31:09;102291.22;;;-2.05;100.00
48790;BME280;41718;51.980;5.734;2023-01-26T00:36:12;102287.66;;;-2.07;100.00
48790;BME280;41718;51.980;5.734;2023-01-26T00:41:13;102290.47;;;-2.04;100.00
48790;BME280;41718;51.980;5.734;2023-01-26T00:46:33;102275.28;;;-2.04;100.00
48790;BME280;41718;51.980;5.734;2023-01-26T00:51:35;102281.06;;;-2.05;100.00
48790;BME280;41718;51.980;5.734;2023-01-26T00:56:36;102277.81;;;-2.04;100.00
48790;BME280;41718;51.980;5.734;2023-01-26T01:01:38;102283.41;;;-1.98;100.00
48790;BME280;41718;51.980;5.734;2023-01-26T01:06:40;102285.25;;;-2.05;100.00
48790;BME280;41718;51.980;5.734;2023-01-26T01:11:41;102281.88;;;-1.96;100.00
48790;BME280;41718;51.980;5.734;2023-01-26T01:16:44;102273.41;;;-1.96;100.00
48790;BME280;41718;51.980;5.734;2023-01-26T01:21:46;102269.75;;;-1.90;100.00
48790;BME280;41718;51.980;5.734;2023-01-26T01:26:48;102271.28;;;-1.92;100.00
48790;BME280;41718;51.980;5.734;2023-01-26T01:31:49;102270.09;;;-1.95;100.00
48790;BME280;41718;51.980;5.734;2023-01-26T01:36:51;102272.16;;;-1.91;100.00
48790;BME280;41718;51.980;5.734;2023-01-26T01:41:52;102265.69;;;-1.88;100.00
48790;BME280;41718;51.980;5.734;2023-01-26T01:46:58;102253.72;;;-1.99;100.00
48790;BME280;41718;51.980;5.734;2023-01-26T01:52:11;102245.56;;;-1.86;100.00
48790;BME280;41718;51.980;5.734;2023-01-26T01:57:19;102240.91;;;-1.71;100.00
48790;BME280;41718;51.980;5.734;2023-01-26T02:02:27;102232.66;;;-1.79;100.00
48790;BME280;41718;51.980;5.734;2023-01-26T02:07:30;102228.00;;;-1.93;100.00
48790;BME280;41718;51.980;5.734;2023-01-26T02:12:32;102234.03;;;-1.82;100.00
48790;BME280;41718;51.980;5.734;2023-01-26T02:17:35;102233.50;;;-1.89;100.00
48790;BME280;41718;51.980;5.734;2023-01-26T02:28:00;102224.41;;;-1.87;100.00
48790;BME280;41718;51.980;5.734;2023-01-26T02:33:02;102231.47;;;-1.82;100.00
48790;BME280;41718;51.980;5.734;2023-01-26T02:38:03;102224.16;;;-1.79;100.00
48790;BME280;41718;51.980;5.734;2023-01-26T02:43:05;102224.69;;;-1.73;100.00
48790;BME280;41718;51.980;5.734;2023-01-26T02:48:07;102222.03;;;-1.75;100.00
48790;BME280;41718;51.980;5.734;2023-01-26T02:53:08;102218.59;;;-1.75;100.00
48790;BME280;41718;51.980;5.734;2023-01-26T02:58:10;102219.63;;;-1.73;100.00
48790;BME280;41718;51.980;5.734;2023-01-26T03:03:17;102234.53;;;-1.76;100.00
48790;BME280;41718;51.980;5.734;2023-01-26T03:08:21;102232.28;;;-1.73;100.00
48790;BME280;41718;51.980;5.734;2023-01-26T03:13:22;102233.59;;;-1.68;100.00
48790;BME280;41718;51.980;5.734;2023-01-26T03:18:23;102227.34;;;-1.72;100.00
48790;BME280;41718;51.980;5.734;2023-01-26T03:23:43;102224.31;;;-1.68;100.00
48790;BME280;41718;51.980;5.734;2023-01-26T03:29:04;102224.56;;;-1.65;100.00
48790;BME280;41718;51.980;5.734;2023-01-26T03:34:05;102223.44;;;-1.68;100.00
48790;BME280;41718;51.980;5.734;2023-01-26T03:39:07;102225.59;;;-1.63;100.00
48790;BME280;41718;51.980;5.734;2023-01-26T03:44:08;102216.97;;;-1.65;100.00
48790;BME280;41718;51.980;5.734;2023-01-26T03:49:28;102209.75;;;-1.60;100.00
48790;BME280;41718;51.980;5.734;2023-01-26T03:54:48;102219.50;;;-1.65;100.00
48790;BME280;41718;51.980;5.734;2023-01-26T04:00:09;102216.22;;;-1.53;100.00
48790;BME280;41718;51.980;5.734;2023-01-26T04:05:11;102224.75;;;-1.53;100.00
48790;BME280;41718;51.980;5.734;2023-01-26T04:10:31;102217.78;;;-1.45;100.00
48790;BME280;41718;51.980;5.734;2023-01-26T04:15:34;102215.88;;;-1.48;100.00
48790;BME280;41718;51.980;5.734;2023-01-26T04:20:54;102221.63;;;-1.40;100.00
48790;BME280;41718;51.980;5.734;2023-01-26T04:26:14;102212.34;;;-1.40;100.00
48790;BME280;41718;51.980;5.734;2023-01-26T04:31:18;102208.03;;;-1.41;100.00
48790;BME280;41718;51.980;5.734;2023-01-26T04:36:19;102206.50;;;-1.39;100.00
48790;BME280;41718;51.980;5.734;2023-01-26T04:41:21;102209.31;;;-1.36;100.00
48790;BME280;41718;51.980;5.734;2023-01-26T04:46:23;102203.56;;;-1.43;100.00
48790;BME280;41718;51.980;5.734;2023-01-26T04:51:25;102205.13;;;-1.35;100.00
48790;BME280;41718;51.980;5.734;2023-01-26T04:56:31;102210.69;;;-1.39;100.00
48790;BME280;41718;51.980;5.734;2023-01-26T05:01:33;102206.13;;;-1.33;100.00
48790;BME280;41718;51.980;5.734;2023-01-26T05:06:35;102203.97;;;-1.39;100.00
48790;BME280;41718;51.980;5.734;2023-01-26T05:11:36;102188.88;;;-1.37;100.00
48790;BME280;41718;51.980;5.734;2023-01-26T05:16:38;102191.91;;;-1.31;100.00
48790;BME280;41718;51.980;5.734;2023-01-26T05:21:39;102191.31;;;-1.28;100.00
48790;BME280;41718;51.980;5.734;2023-01-26T05:26:41;102180.38;;;-1.27;100.00
48790;BME280;41718;51.980;5.734;2023-01-26T05:31:42;102187.75;;;-1.30;100.00
48790;BME280;41718;51.980;5.734;2023-01-26T05:36:44;102191.03;;;-1.21;100.00
48790;BME280;41718;51.980;5.734;2023-01-26T05:41:45;102189.16;;;-1.24;100.00
48790;BME280;41718;51.980;5.734;2023-01-26T05:46:47;102188.38;;;-1.23;100.00
48790;BME280;41718;51.980;5.734;2023-01-26T05:51:48;102181.66;;;-1.22;100.00
48790;BME280;41718;51.980;5.734;2023-01-26T05:56:50;102188.50;;;-1.21;100.00
48790;BME280;41718;51.980;5.734;2023-01-26T06:01:55;102186.97;;;-1.19;100.00
48790;BME280;41718;51.980;5.734;2023-01-26T06:06:58;102193.09;;;-1.17;100.00
48790;BME280;41718;51.980;5.734;2023-01-26T06:12:00;102194.22;;;-1.14;100.00
48790;BME280;41718;51.980;5.734;2023-01-26T06:17:01;102193.59;;;-1.11;100.00
48790;BME280;41718;51.980;5.734;2023-01-26T06:22:06;102188.25;;;-1.14;100.00
48790;BME280;41718;51.980;5.734;2023-01-26T06:27:13;102197.78;;;-1.12;100.00
48790;BME280;41718;51.980;5.734;2023-01-26T06:32:15;102202.09;;;-1.11;100.00
48790;BME280;41718;51.980;5.734;2023-01-26T06:37:16;102207.97;;;-1.01;100.00
48790;BME280;41718;51.980;5.734;2023-01-26T06:42:18;102203.25;;;-1.07;100.00
48790;BME280;41718;51.980;5.734;2023-01-26T06:47:19;102208.69;;;-1.02;100.00
48790;BME280;41718;51.980;5.734;2023-01-26T06:52:25;102223.19;;;-1.01;100.00
48790;BME280;41718;51.980;5.734;2023-01-26T06:57:31;102213.91;;;-1.01;100.00
48790;BME280;41718;51.980;5.734;2023-01-26T07:02:51;102214.41;;;-1.05;100.00
48790;BME280;41718;51.980;5.734;2023-01-26T07:07:58;102214.53;;;-1.03;100.00
48790;BME280;41718;51.980;5.734;2023-01-26T07:19:53;102207.69;;;-1.04;100.00
48790;BME280;41718;51.980;5.734;2023-01-26T07:30:51;102215.19;;;-0.96;100.00
48790;BME280;41718;51.980;5.734;2023-01-26T07:35:54;102222.81;;;-0.96;100.00
48790;BME280;41718;51.980;5.734;2023-01-26T07:40:56;102231.31;;;-0.95;100.00
48790;BME280;41718;51.980;5.734;2023-01-26T07:45:57;102235.50;;;-0.96;100.00
48790;BME280;41718;51.980;5.734;2023-01-26T07:51:00;102239.16;;;-0.92;100.00
48790;BME280;41718;51.980;5.734;2023-01-26T07:56:13;102238.69;;;-0.88;100.00
48790;BME280;41718;51.980;5.734;2023-01-26T08:01:16;102235.63;;;-0.84;100.00
48790;BME280;41718;51.980;5.734;2023-01-26T08:06:19;102238.28;;;-0.83;100.00
48790;BME280;41718;51.980;5.734;2023-01-26T08:11:21;102247.56;;;-0.83;100.00
48790;BME280;41718;51.980;5.734;2023-01-26T08:16:24;102250.34;;;-0.80;100.00
48790;BME280;41718;51.980;5.734;2023-01-26T08:21:26;102247.97;;;-0.78;100.00
48790;BME280;41718;51.980;5.734;2023-01-26T08:26:28;102248.19;;;-0.75;100.00
48790;BME280;41718;51.980;5.734;2023-01-26T08:31:29;102249.22;;;-0.73;100.00
48790;BME280;41718;51.980;5.734;2023-01-26T08:36:32;102242.72;;;-0.70;100.00
48790;BME280;41718;51.980;5.734;2023-01-26T08:41:40;102239.69;;;-0.66;100.00
48790;BME280;41718;51.980;5.734;2023-01-26T08:46:44;102245.00;;;-0.63;100.00
48790;BME280;41718;51.980;5.734;2023-01-26T08:51:47;102241.06;;;-0.59;100.00
48790;BME280;41718;51.980;5.734;2023-01-26T08:56:49;102257.22;;;-0.59;100.00
48790;BME280;41718;51.980;5.734;2023-01-26T09:01:50;102246.16;;;-0.59;100.00
48790;BME280;41718;51.980;5.734;2023-01-26T09:06:52;102249.09;;;-0.55;100.00
48790;BME280;41718;51.980;5.734;2023-01-26T09:11:54;102244.88;;;-0.54;100.00
48790;BME280;41718;51.980;5.734;2023-01-26T09:16:56;102257.09;;;-0.50;100.00
48790;BME280;41718;51.980;5.734;2023-01-26T09:21:57;102258.59;;;-0.42;100.00
48790;BME280;41718;51.980;5.734;2023-01-26T09:26:59;102249.56;;;-0.38;100.00
48790;BME280;41718;51.980;5.734;2023-01-26T09:32:03;102254.00;;;-0.36;100.00
48790;BME280;41718;51.980;5.734;2023-01-26T09:37:06;102248.53;;;-0.30;100.00
48790;BME280;41718;51.980;5.734;2023-01-26T09:47:40;102247.59;;;-0.10;100.00
48790;BME280;41718;51.980;5.734;2023-01-26T09:52:54;102238.41;;;0.02;100.00
48790;BME280;41718;51.980;5.734;2023-01-26T09:58:04;102245.88;;;0.11;100.00
48790;BME280;41718;51.980;5.734;2023-01-26T10:03:28;102245.13;;;0.12;100.00
48790;BME280;41718;51.980;5.734;2023-01-26T10:08:34;102233.78;;;0.18;100.00
48790;BME280;41718;51.980;5.734;2023-01-26T10:13:42;102236.63;;;0.33;100.00
48790;BME280;41718;51.980;5.734;2023-01-26T10:24:01;102239.44;;;0.58;100.00
48790;BME280;41718;51.980;5.734;2023-01-26T10:29:14;102239.06;;;0.75;100.00
48790;BME280;41718;51.980;5.734;2023-01-26T10:34:44;102226.84;;;0.93;100.00
48790;BME280;41718;51.980;5.734;2023-01-26T10:40:05;102220.50;;;1.22;100.00
48790;BME280;41718;51.980;5.734;2023-01-26T10:45:31;102215.34;;;1.44;100.00
48790;BME280;41718;51.980;5.734;2023-01-26T10:50:33;102209.47;;;1.56;100.00
48790;BME280;41718;51.980;5.734;2023-01-26T10:55:35;102206.13;;;1.69;100.00
48790;BME280;41718;51.980;5.734;2023-01-26T11:00:39;102211.66;;;1.87;100.00
48790;BME280;41718;51.980;5.734;2023-01-26T11:05:41;102208.34;;;2.00;100.00
48790;BME280;41718;51.980;5.734;2023-01-26T11:10:51;102204.75;;;2.21;100.00
48790;BME280;41718;51.980;5.734;2023-01-26T11:21:25;102200.03;;;3.52;100.00
48790;BME280;41718;51.980;5.734;2023-01-26T11:32:08;102225.47;;;4.71;100.00
48790;BME280;41718;51.980;5.734;2023-01-26T11:37:47;102235.91;;;5.32;100.00
48790;BME280;41718;51.980;5.734;2023-01-26T11:48:38;102258.66;;;6.62;100.00
48790;BME280;41718;51.980;5.734;2023-01-26T11:54:01;102258.28;;;6.71;100.00
48790;BME280;41718;51.980;5.734;2023-01-26T11:59:27;102272.66;;;6.67;100.00
48790;BME280;41718;51.980;5.734;2023-01-26T12:04:38;102258.03;;;6.19;100.00
48790;BME280;41718;51.980;5.734;2023-01-26T12:09:48;102257.50;;;6.72;100.00
48790;BME280;41718;51.980;5.734;2023-01-26T12:15:02;102259.31;;;6.74;100.00
48790;BME280;41718;51.980;5.734;2023-01-26T12:20:23;102261.13;;;6.44;100.00
48790;BME280;41718;51.980;5.734;2023-01-26T12:25:35;102251.53;;;6.73;100.00
48790;BME280;41718;51.980;5.734;2023-01-26T12:36:55;102253.09;;;6.38;100.00
48790;BME280;41718;51.980;5.734;2023-01-26T12:47:28;102234.22;;;6.37;100.00
48790;BME280;41718;51.980;5.734;2023-01-26T12:58:13;102224.28;;;6.13;100.00
48790;BME280;41718;51.980;5.734;2023-01-26T13:03:20;102244.00;;;5.97;100.00
48790;BME280;41718;51.980;5.734;2023-01-26T13:18:47;102227.97;;;6.18;100.00
48790;BME280;41718;51.980;5.734;2023-01-26T13:23:50;102231.56;;;6.05;100.00
48790;BME280;41718;51.980;5.734;2023-01-26T13:34:36;102234.78;;;5.86;100.00
48790;BME280;41718;51.980;5.734;2023-01-26T13:39:41;102243.72;;;5.93;100.00
48790;BME280;41718;51.980;5.734;2023-01-26T13:44:50;102239.00;;;6.00;100.00
48790;BME280;41718;51.980;5.734;2023-01-26T13:49:53;102234.06;;;6.03;100.00
48790;BME280;41718;51.980;5.734;2023-01-26T13:54:55;102236.84;;;6.23;100.00
48790;BME280;41718;51.980;5.734;2023-01-26T13:59:59;102235.63;;;6.16;100.00
48790;BME280;41718;51.980;5.734;2023-01-26T14:05:01;102246.78;;;6.17;100.00
48790;BME280;41718;51.980;5.734;2023-01-26T14:10:04;102246.78;;;6.17;100.00
48790;BME280;41718;51.980;5.734;2023-01-26T14:15:27;102255.75;;;6.08;100.00
48790;BME280;41718;51.980;5.734;2023-01-26T14:20:35;102256.38;;;6.04;100.00
48790;BME280;41718;51.980;5.734;2023-01-26T14:25:37;102257.72;;;5.98;100.00
48790;BME280;41718;51.980;5.734;2023-01-26T14:30:39;102259.75;;;6.03;100.00
48790;BME280;41718;51.980;5.734;2023-01-26T14:35:42;102270.72;;;6.01;100.00
48790;BME280;41718;51.980;5.734;2023-01-26T14:40:46;102264.69;;;6.00;100.00
48790;BME280;41718;51.980;5.734;2023-01-26T14:45:58;102266.91;;;5.94;100.00
48790;BME280;41718;51.980;5.734;2023-01-26T14:51:03;102274.63;;;5.94;100.00
48790;BME280;41718;51.980;5.734;2023-01-26T14:56:17;102277.44;;;5.84;100.00
48790;BME280;41718;51.980;5.734;2023-01-26T15:01:24;102281.44;;;5.79;100.00
48790;BME280;41718;51.980;5.734;2023-01-26T15:06:27;102291.53;;;5.76;100.00
48790;BME280;41718;51.980;5.734;2023-01-26T15:11:35;102278.59;;;5.74;100.00
48790;BME280;41718;51.980;5.734;2023-01-26T15:16:55;102280.47;;;5.62;100.00
48790;BME280;41718;51.980;5.734;2023-01-26T15:21:57;102278.25;;;5.68;100.00
48790;BME280;41718;51.980;5.734;2023-01-26T15:27:04;102278.00;;;5.64;100.00
48790;BME280;41718;51.980;5.734;2023-01-26T15:32:26;102278.44;;;5.56;100.00
48790;BME280;41718;51.980;5.734;2023-01-26T15:37:32;102275.31;;;5.47;100.00
48790;BME280;41718;51.980;5.734;2023-01-26T15:42:35;102276.13;;;5.46;100.00
48790;BME280;41718;51.980;5.734;2023-01-26T15:47:37;102273.34;;;5.43;100.00
48790;BME280;41718;51.980;5.734;2023-01-26T15:52:38;102279.00;;;5.38;100.00
48790;BME280;41718;51.980;5.734;2023-01-26T15:57:41;102282.03;;;5.30;100.00
48790;BME280;41718;51.980;5.734;2023-01-26T16:02:43;102287.97;;;5.29;100.00
48790;BME280;41718;51.980;5.734;2023-01-26T16:07:45;102294.41;;;5.23;100.00
48790;BME280;41718;51.980;5.734;2023-01-26T16:12:47;102295.09;;;5.20;100.00
48790;BME280;41718;51.980;5.734;2023-01-26T16:17:51;102293.16;;;5.16;100.00
48790;BME280;41718;51.980;5.734;2023-01-26T16:22:53;102295.59;;;5.15;100.00
48790;BME280;41718;51.980;5.734;2023-01-26T16:28:09;102300.06;;;5.17;100.00
48790;BME280;41718;51.980;5.734;2023-01-26T16:33:12;102298.88;;;5.12;100.00
48790;BME280;41718;51.980;5.734;2023-01-26T16:38:17;102313.28;;;5.10;100.00
48790;BME280;41718;51.980;5.734;2023-01-26T16:43:23;102317.34;;;5.07;100.00
48790;BME280;41718;51.980;5.734;2023-01-26T16:48:29;102317.78;;;4.99;100.00
48790;BME280;41718;51.980;5.734;2023-01-26T16:53:34;102312.75;;;4.88;100.00
48790;BME280;41718;51.980;5.734;2023-01-26T16:58:36;102309.81;;;4.82;100.00
48790;BME280;41718;51.980;5.734;2023-01-26T17:03:37;102310.63;;;4.81;100.00
48790;BME280;41718;51.980;5.734;2023-01-26T17:08:39;102319.91;;;4.78;100.00
48790;BME280;41718;51.980;5.734;2023-01-26T17:13:47;102318.81;;;4.75;100.00
48790;BME280;41718;51.980;5.734;2023-01-26T17:18:50;102312.50;;;4.70;100.00
48790;BME280;41718;51.980;5.734;2023-01-26T17:23:53;102310.31;;;4.76;100.00
48790;BME280;41718;51.980;5.734;2023-01-26T17:28:56;102311.47;;;4.66;100.00
48790;BME280;41718;51.980;5.734;2023-01-26T17:33:58;102305.44;;;4.66;100.00
48790;BME280;41718;51.980;5.734;2023-01-26T17:39:00;102296.66;;;4.62;100.00
48790;BME280;41718;51.980;5.734;2023-01-26T17:44:03;102302.59;;;4.61;100.00
48790;BME280;41718;51.980;5.734;2023-01-26T17:49:06;102314.53;;;4.61;100.00
48790;BME280;41718;51.980;5.734;2023-01-26T17:54:07;102309.56;;;4.64;100.00
48790;BME280;41718;51.980;5.734;2023-01-26T17:59:10;102306.22;;;4.65;100.00
48790;BME280;41718;51.980;5.734;2023-01-26T18:04:13;102309.19;;;4.58;100.00
48790;BME280;41718;51.980;5.734;2023-01-26T18:09:15;102313.13;;;4.52;100.00
48790;BME280;41718;51.980;5.734;2023-01-26T18:14:17;102309.91;;;4.55;100.00
48790;BME280;41718;51.980;5.734;2023-01-26T18:19:18;102314.22;;;4.56;100.00
48790;BME280;41718;51.980;5.734;2023-01-26T18:24:20;102302.09;;;4.53;100.00
48790;BME280;41718;51.980;5.734;2023-01-26T18:29:23;102305.06;;;4.46;100.00
48790;BME280;41718;51.980;5.734;2023-01-26T18:34:25;102300.25;;;4.51;100.00
48790;BME280;41718;51.980;5.734;2023-01-26T18:39:27;102306.34;;;4.53;100.00
48790;BME280;41718;51.980;5.734;2023-01-26T18:44:29;102312.25;;;4.52;100.00
48790;BME280;41718;51.980;5.734;2023-01-26T18:49:31;102307.25;;;4.40;100.00
48790;BME280;41718;51.980;5.734;2023-01-26T18:54:33;102314.25;;;4.43;100.00
48790;BME280;41718;51.980;5.734;2023-01-26T18:59:36;102311.19;;;4.35;100.00
48790;BME280;41718;51.980;5.734;2023-01-26T19:04:38;102309.41;;;4.34;100.00
48790;BME280;41718;51.980;5.734;2023-01-26T19:09:42;102311.28;;;4.37;100.00
48790;BME280;41718;51.980;5.734;2023-01-26T19:14:43;102306.94;;;4.36;100.00
48790;BME280;41718;51.980;5.734;2023-01-26T19:19:47;102321.44;;;4.35;100.00
48790;BME280;41718;51.980;5.734;2023-01-26T19:24:50;102317.00;;;4.46;100.00
48790;BME280;41718;51.980;5.734;2023-01-26T19:29:54;102314.94;;;4.40;100.00
48790;BME280;41718;51.980;5.734;2023-01-26T19:34:56;102319.38;;;4.43;100.00
48790;BME280;41718;51.980;5.734;2023-01-26T19:39:58;102323.31;;;4.38;100.00
48790;BME280;41718;51.980;5.734;2023-01-26T19:45:03;102320.13;;;4.42;100.00
48790;BME280;41718;51.980;5.734;2023-01-26T19:50:05;102324.88;;;4.36;100.00
48790;BME280;41718;51.980;5.734;2023-01-26T19:55:07;102327.66;;;4.39;100.00
48790;BME280;41718;51.980;5.734;2023-01-26T20:00:12;102322.03;;;4.31;100.00
48790;BME280;41718;51.980;5.734;2023-01-26T20:05:15;102326.25;;;4.31;100.00
48790;BME280;41718;51.980;5.734;2023-01-26T20:10:18;102327.94;;;4.30;100.00
48790;BME280;41718;51.980;5.734;2023-01-26T20:15:19;102330.31;;;4.27;100.00
48790;BME280;41718;51.980;5.734;2023-01-26T20:20:24;102328.63;;;4.28;100.00
48790;BME280;41718;51.980;5.734;2023-01-26T20:25:25;102325.19;;;4.27;100.00
48790;BME280;41718;51.980;5.734;2023-01-26T20:30:31;102323.44;;;4.26;100.00
48790;BME280;41718;51.980;5.734;2023-01-26T20:35:33;102336.03;;;4.23;100.00
48790;BME280;41718;51.980;5.734;2023-01-26T20:40:36;102340.16;;;4.21;100.00
48790;BME280;41718;51.980;5.734;2023-01-26T20:45:40;102334.94;;;4.33;100.00
48790;BME280;41718;51.980;5.734;2023-01-26T20:50:47;102332.09;;;4.28;100.00
48790;BME280;41718;51.980;5.734;2023-01-26T20:55:57;102339.56;;;4.25;100.00
48790;BME280;41718;51.980;5.734;2023-01-26T21:01:03;102335.22;;;4.24;100.00
48790;BME280;41718;51.980;5.734;2023-01-26T21:06:07;102336.81;;;4.22;100.00
48790;BME280;41718;51.980;5.734;2023-01-26T21:11:12;102338.50;;;4.21;100.00
48790;BME280;41718;51.980;5.734;2023-01-26T21:16:16;102333.66;;;4.13;100.00
48790;BME280;41718;51.980;5.734;2023-01-26T21:21:21;102335.91;;;4.08;100.00
48790;BME280;41718;51.980;5.734;2023-01-26T21:26:24;102335.50;;;4.02;100.00
48790;BME280;41718;51.980;5.734;2023-01-26T21:31:29;102329.09;;;3.95;100.00
48790;BME280;41718;51.980;5.734;2023-01-26T21:36:31;102326.84;;;3.87;100.00
48790;BME280;41718;51.980;5.734;2023-01-26T21:41:34;102323.88;;;3.81;100.00
48790;BME280;41718;51.980;5.734;2023-01-26T21:47:00;102315.91;;;3.76;100.00
48790;BME280;41718;51.980;5.734;2023-01-26T21:52:08;102314.59;;;3.69;100.00
48790;BME280;41718;51.980;5.734;2023-01-26T21:57:32;102320.22;;;3.64;100.00
48790;BME280;41718;51.980;5.734;2023-01-26T22:02:54;102323.34;;;3.60;100.00
48790;BME280;41718;51.980;5.734;2023-01-26T22:07:56;102322.22;;;3.56;100.00
48790;BME280;41718;51.980;5.734;2023-01-26T22:12:58;102327.16;;;3.53;100.00
48790;BME280;41718;51.980;5.734;2023-01-26T22:18:00;102324.38;;;3.50;100.00
48790;BME280;41718;51.980;5.734;2023-01-26T22:23:01;102320.94;;;3.50;100.00
48790;BME280;41718;51.980;5.734;2023-01-26T22:28:04;102329.09;;;3.44;100.00
48790;BME280;41718;51.980;5.734;2023-01-26T22:33:05;102326.03;;;3.36;100.00
48790;BME280;41718;51.980;5.734;2023-01-26T22:38:07;102335.72;;;3.29;100.00
48790;BME280;41718;51.980;5.734;2023-01-26T22:43:09;102326.88;;;3.24;100.00
48790;BME280;41718;51.980;5.734;2023-01-26T22:48:10;102334.41;;;3.22;100.00
48790;BME280;41718;51.980;5.734;2023-01-26T22:53:14;102338.31;;;3.17;100.00
48790;BME280;41718;51.980;5.734;2023-01-26T22:58:15;102329.34;;;3.10;100.00
48790;BME280;41718;51.980;5.734;2023-01-26T23:03:18;102337.91;;;3.11;100.00
48790;BME280;41718;51.980;5.734;2023-01-26T23:08:19;102341.34;;;3.11;100.00
48790;BME280;41718;51.980;5.734;2023-01-26T23:13:20;102351.47;;;3.10;100.00
48790;BME280;41718;51.980;5.734;2023-01-26T23:18:22;102343.59;;;3.07;100.00
48790;BME280;41718;51.980;5.734;2023-01-26T23:23:25;102337.47;;;3.05;100.00
48790;BME280;41718;51.980;5.734;2023-01-26T23:28:29;102334.91;;;3.05;100.00
48790;BME280;41718;51.980;5.734;2023-01-26T23:33:32;102337.38;;;3.03;100.00
48790;BME280;41718;51.980;5.734;2023-01-26T23:38:34;102342.25;;;3.00;100.00
48790;BME280;41718;51.980;5.734;2023-01-26T23:43:36;102344.06;;;3.01;100.00
48790;BME280;41718;51.980;5.734;2023-01-26T23:48:38;102348.38;;;3.02;100.00
48790;BME280;41718;51.980;5.734;2023-01-26T23:53:40;102346.50;;;3.00;100.00
48790;BME280;41718;51.980;5.734;2023-01-26T23:58:41;102357.59;;;3.00;100.00
